Time;durP1;ratioP1;P1;durP2;ratioP2;P2;SDS_P1;SDS_P2;PMS_P1;PMS_P2;Temp;Humidity;BMP_temperature;BMP_pressure;BME280_temperature;BME280_humidity;BME280_pressure;Samples;Min_cycle;Max_cycle;Signal;HPM_P1;HPM_P2
2024/01/09 00:01:44;;;;;;;;;;;;;;;;;;4976737;28;89496;-66
2024/01/09 00:04:10;;;;;;;;;;;;;;;;;;4979551;28;89552;-66
2024/01/09 00:06:35;;;;;;;;;;;;;;;;;;4979616;28;90480;-68
2024/01/09 00:09:02;;;;;;;;;;;;;;;;;;4976950;28;89753;-68
2024/01/09 00:11:27;;;;;;;;;;;;;;;;;;4976557;28;91155;-67
2024/01/09 00:13:53;;;;;;;;;;;;;;;;;;4976531;28;89615;-67
2024/01/09 00:16:18;;;;;;;;;;;;;;;;;;4978523;28;89532;-66
2024/01/09 00:18:43;;;;;;;;;;;;;;;;;;4978827;28;89049;-66
2024/01/09 00:21:08;;;;;;;;;;;;;;;;;;4971861;28;89821;-68
2024/01/09 00:23:33;;;;;;;;;;;;;;;;;;4977568;28;89673;-66
2024/01/09 00:25:59;;;;;;;;;;;;;;;;;;4978487;28;89435;-66
2024/01/09 00:28:25;;;;;;;;;;;;;;;;;;4978154;28;91355;-66
2024/01/09 00:30:50;;;;;;;;;;;;;;;;;;4975842;28;92354;-66
2024/01/09 00:33:15;;;;;;;;;;;;;;;;;;4975129;28;89038;-66
2024/01/09 00:35:40;;;;;;;;;;;;;;;;;;4981056;28;90739;-66
2024/01/09 00:38:05;;;;;;;;;;;;;;;;;;4974170;28;89867;-68
2024/01/09 00:40:31;;;;;;;;;;;;;;;;;;4973399;28;92312;-67
2024/01/09 00:42:56;;;;;;;;;;;;;;;;;;4982917;28;89669;-67
2024/01/09 00:45:21;;;;;;;;;;;;;;;;;;4978055;28;90155;-66
2024/01/09 00:47:46;;;;;;;;;;;;;;;;;;4974277;28;89526;-67
2024/01/09 00:50:11;;;;;;;;;;;;;;;;;;4977987;28;89648;-66
2024/01/09 00:52:37;;;;;;;;;;;;;;;;;;4975253;28;89835;-67
2024/01/09 00:55:02;;;;;;;;;;;;;;;;;;4976547;28;89741;-66
2024/01/09 00:57:27;;;;;;;;;;;;;;;;;;4977442;28;90391;-67
2024/01/09 00:59:52;;;;;;;;;;;;;;;;;;4982678;28;89533;-67
2024/01/09 01:02:18;;;;;;;;;;;;;;;;;;4977997;28;89143;-68
2024/01/09 01:04:43;;;;;;;;;;;;;;;;;;4985288;28;89063;-67
2024/01/09 01:07:09;;;;;;;;;;;;;;;;;;4982514;28;89028;-67
2024/01/09 01:09:34;;;;;;;;;;;;;;;;;;4982345;28;89621;-67
2024/01/09 01:11:59;;;;;;;;;;;;;;;;;;4980616;28;89535;-66
2024/01/09 01:14:24;;;;;;;;;;;;;;;;;;4976601;28;90705;-66
2024/01/09 01:16:50;;;;;;;;;;;;;;;;;;4982540;28;89204;-67
2024/01/09 01:19:15;;;;;;;;;;;;;;;;;;4979220;28;89652;-66
2024/01/09 01:21:40;;;;;;;;;;;;;;;;;;4976590;28;89584;-66
2024/01/09 01:24:06;;;;;;;;;;;;;;;;;;4981891;28;89126;-66
2024/01/09 01:26:31;;;;;;;;;;;;;;;;;;4984193;28;89198;-66
2024/01/09 01:28:56;;;;;;;;;;;;;;;;;;4980308;28;89776;-66
2024/01/09 01:31:21;;;;;;;;;;;;;;;;;;4982033;28;89609;-66
2024/01/09 01:33:47;;;;;;;;;;;;;;;;;;4979743;28;89506;-67
2024/01/09 01:36:12;;;;;;;;;;;;;;;;;;4981001;28;89842;-66
2024/01/09 01:38:38;;;;;;;;;;;;;;;;;;4982517;28;89775;-66
2024/01/09 01:41:03;;;;;;;;;;;;;;;;;;4977916;28;89488;-66
2024/01/09 01:43:28;;;;;;;;;;;;;;;;;;4977773;28;89083;-67
2024/01/09 01:45:54;;;;;;;;;;;;;;;;;;4979024;28;90066;-67
2024/01/09 01:48:19;;;;;;;;;;;;;;;;;;4982220;28;89672;-66
2024/01/09 01:50:45;;;;;;;;;;;;;;;;;;4979891;28;89402;-66
2024/01/09 01:53:10;;;;;;;;;;;;;;;;;;4974136;28;90099;-66
2024/01/09 01:55:35;;;;;;;;;;;;;;;;;;4980112;28;89380;-67
2024/01/09 01:58:02;;;;;;;;;;;;;;;;;;4978059;28;90699;-66
2024/01/09 02:00:27;;;;;;;;;;;;;;;;;;4975663;28;90806;-66
2024/01/09 02:02:53;;;;;;;;;;;;;;;;;;4982991;28;89362;-66
2024/01/09 02:05:19;;;;;;;;;;;;;;;;;;4983137;28;90574;-67
2024/01/09 02:07:49;;;;;;;;;;;;;;;;;;4981126;28;90226;-67
2024/01/09 02:10:15;;;;;;;;;;;;;;;;;;4983497;28;89040;-66
2024/01/09 02:12:41;;;;;;;;;;;;;;;;;;4981095;28;89624;-68
2024/01/09 02:15:06;;;;;;;;;;;;;;;;;;4978823;28;89316;-67
2024/01/09 02:17:32;;;;;;;;;;;;;;;;;;4984170;28;90111;-67
2024/01/09 02:20:00;;;;;;;;;;;;;;;;;;4981114;28;90402;-66
2024/01/09 02:22:25;;;;;;;;;;;;;;;;;;4983641;28;89523;-66
2024/01/09 02:24:50;;;;;;;;;;;;;;;;;;4982295;28;91079;-67
2024/01/09 02:27:45;;;;;;;;;;;;;;;;;;4979900;28;90108;-66
2024/01/09 02:30:10;;;;;;;;;;;;;;;;;;4978691;28;89538;-67
2024/01/09 02:32:36;;;;;;;;;;;;;;;;;;4984472;28;89509;-66
2024/01/09 02:35:01;;;;;;;;;;;;;;;;;;4979043;28;90893;-66
2024/01/09 02:37:26;;;;;;;;;;;;;;;;;;4976604;28;89730;-66
2024/01/09 02:39:52;;;;;;;;;;;;;;;;;;4984640;28;90139;-67
2024/01/09 02:42:17;;;;;;;;;;;;;;;;;;4977828;28;90199;-68
2024/01/09 02:44:42;;;;;;;;;;;;;;;;;;4978229;28;89661;-66
2024/01/09 02:47:08;;;;;;;;;;;;;;;;;;4971992;28;89586;-66
2024/01/09 02:49:33;;;;;;;;;;;;;;;;;;4971835;28;89034;-67
2024/01/09 02:51:58;;;;;;;;;;;;;;;;;;4977733;28;89495;-67
2024/01/09 02:54:24;;;;;;;;;;;;;;;;;;4979236;28;89551;-67
2024/01/09 02:56:50;;;;;;;;;;;;;;;;;;4978057;28;89499;-66
2024/01/09 02:59:15;;;;;;;;;;;;;;;;;;4975240;28;89767;-68
2024/01/09 03:01:40;;;;;;;;;;;;;;;;;;4982004;28;89632;-66
2024/01/09 03:04:05;;;;;;;;;;;;;;;;;;4986163;28;89152;-66
2024/01/09 03:06:30;;;;;;;;;;;;;;;;;;4982087;28;89095;-66
2024/01/09 03:08:56;;;;;;;;;;;;;;;;;;4980938;28;89471;-66
2024/01/09 03:11:21;;;;;;;;;;;;;;;;;;4977654;28;90703;-67
2024/01/09 03:13:46;;;;;;;;;;;;;;;;;;4976985;28;90313;-67
2024/01/09 03:16:12;;;;;;;;;;;;;;;;;;4976568;28;89907;-71
2024/01/09 03:18:38;;;;;;;;;;;;;;;;;;4980846;28;89533;-67
2024/01/09 03:21:03;;;;;;;;;;;;;;;;;;4975388;28;89485;-66
2024/01/09 03:23:28;;;;;;;;;;;;;;;;;;4978446;28;89369;-66
2024/01/09 03:25:53;;;;;;;;;;;;;;;;;;4976841;28;89441;-66
2024/01/09 03:28:19;;;;;;;;;;;;;;;;;;4983688;28;89159;-67
2024/01/09 03:30:44;;;;;;;;;;;;;;;;;;4981320;28;89494;-66
2024/01/09 03:33:09;;;;;;;;;;;;;;;;;;4976095;28;89729;-67
2024/01/09 03:35:35;;;;;;;;;;;;;;;;;;4977620;28;89306;-66
2024/01/09 03:38:00;;;;;;;;;;;;;;;;;;4981582;28;90168;-66
2024/01/09 03:40:25;;;;;;;;;;;;;;;;;;4977810;28;89411;-67
2024/01/09 03:42:50;;;;;;;;;;;;;;;;;;4973394;28;89508;-67
2024/01/09 03:45:15;;;;;;;;;;;;;;;;;;4982326;28;89839;-67
2024/01/09 03:47:41;;;;;;;;;;;;;;;;;;4981486;28;89719;-68
2024/01/09 03:50:06;;;;;;;;;;;;;;;;;;4974693;28;89475;-66
2024/01/09 03:52:32;;;;;;;;;;;;;;;;;;4973542;28;90145;-66
2024/01/09 03:54:57;;;;;;;;;;;;;;;;;;4979699;28;89498;-66
2024/01/09 03:57:22;;;;;;;;;;;;;;;;;;4977436;28;90082;-66
2024/01/09 03:59:47;;;;;;;;;;;;;;;;;;4976153;28;89449;-66
2024/01/09 04:02:12;;;;;;;;;;;;;;;;;;4978066;28;89594;-66
2024/01/09 04:04:38;;;;;;;;;;;;;;;;;;4978749;28;89433;-67
2024/01/09 04:07:03;;;;;;;;;;;;;;;;;;4984557;28;89818;-66
2024/01/09 04:09:28;;;;;;;;;;;;;;;;;;4975134;28;89736;-67
2024/01/09 04:11:54;;;;;;;;;;;;;;;;;;4982116;28;89454;-66
2024/01/09 04:14:19;;;;;;;;;;;;;;;;;;4977154;28;89458;-66
2024/01/09 04:16:45;;;;;;;;;;;;;;;;;;4974300;28;89395;-66
2024/01/09 04:19:10;;;;;;;;;;;;;;;;;;4979444;28;90714;-66
2024/01/09 04:21:36;;;;;;;;;;;;;;;;;;4977233;28;89640;-67
2024/01/09 04:24:01;;;;;;;;;;;;;;;;;;4973355;28;89552;-68
2024/01/09 04:26:26;;;;;;;;;;;;;;;;;;4981445;28;89468;-67
2024/01/09 04:28:52;;;;;;;;;;;;;;;;;;4977580;28;90100;-66
2024/01/09 04:31:17;;;;;;;;;;;;;;;;;;4978154;28;89831;-66
2024/01/09 04:33:42;;;;;;;;;;;;;;;;;;4976285;28;89147;-66
2024/01/09 04:36:07;;;;;;;;;;;;;;;;;;4979254;28;89530;-66
2024/01/09 04:38:32;;;;;;;;;;;;;;;;;;4974046;28;89277;-66
2024/01/09 04:40:58;;;;;;;;;;;;;;;;;;4972472;28;89435;-67
2024/01/09 04:43:23;;;;;;;;;;;;;;;;;;4979617;28;89654;-67
2024/01/09 04:45:48;;;;;;;;;;;;;;;;;;4971073;28;92140;-66
2024/01/09 04:48:13;;;;;;;;;;;;;;;;;;4970704;28;89149;-67
2024/01/09 04:50:39;;;;;;;;;;;;;;;;;;4974878;28;89754;-66
2024/01/09 04:53:04;;;;;;;;;;;;;;;;;;4980399;28;91708;-67
2024/01/09 04:55:30;;;;;;;;;;;;;;;;;;4977036;28;89668;-66
2024/01/09 04:57:55;;;;;;;;;;;;;;;;;;4971800;28;90161;-65
2024/01/09 05:00:21;;;;;;;;;;;;;;;;;;4972570;28;89990;-67
2024/01/09 05:02:47;;;;;;;;;;;;;;;;;;4977754;28;90142;-66
2024/01/09 05:05:13;;;;;;;;;;;;;;;;;;4975327;28;90371;-67
2024/01/09 05:07:39;;;;;;;;;;;;;;;;;;4978858;28;89714;-67
2024/01/09 05:10:04;;;;;;;;;;;;;;;;;;4977316;28;89709;-67
2024/01/09 05:12:29;;;;;;;;;;;;;;;;;;4977154;28;89138;-66
2024/01/09 05:14:54;;;;;;;;;;;;;;;;;;4978630;28;89500;-66
2024/01/09 05:17:20;;;;;;;;;;;;;;;;;;4972243;28;89721;-66
2024/01/09 05:19:45;;;;;;;;;;;;;;;;;;4975072;28;89905;-66
2024/01/09 05:22:10;;;;;;;;;;;;;;;;;;4975858;28;89165;-66
2024/01/09 05:24:35;;;;;;;;;;;;;;;;;;4971712;28;92017;-66
2024/01/09 05:27:01;;;;;;;;;;;;;;;;;;4974753;28;89437;-66
2024/01/09 05:29:26;;;;;;;;;;;;;;;;;;4971422;28;89969;-68
2024/01/09 05:31:51;;;;;;;;;;;;;;;;;;4972749;28;90012;-66
2024/01/09 05:34:16;;;;;;;;;;;;;;;;;;4976454;28;90309;-67
2024/01/09 05:36:42;;;;;;;;;;;;;;;;;;4975572;28;89804;-67
2024/01/09 05:39:07;;;;;;;;;;;;;;;;;;4972466;28;90082;-66
2024/01/09 05:41:32;;;;;;;;;;;;;;;;;;4976182;28;90105;-66
2024/01/09 05:43:57;;;;;;;;;;;;;;;;;;4976341;28;89617;-66
2024/01/09 05:46:23;;;;;;;;;;;;;;;;;;4976656;28;89717;-66
2024/01/09 05:48:48;;;;;;;;;;;;;;;;;;4980611;28;90407;-66
2024/01/09 05:51:14;;;;;;;;;;;;;;;;;;4977974;28;89204;-67
2024/01/09 05:53:40;;;;;;;;;;;;;;;;;;4978030;28;89653;-66
2024/01/09 05:56:08;;;;;;;;;;;;;;;;;;4979801;28;89575;-68
2024/01/09 05:58:34;;;;;;;;;;;;;;;;;;4981021;28;89248;-66
2024/01/09 06:00:59;;;;;;;;;;;;;;;;;;4974683;28;89240;-67
2024/01/09 06:03:24;;;;;;;;;;;;;;;;;;4974325;28;89471;-66
2024/01/09 06:05:49;;;;;;;;;;;;;;;;;;4977123;28;89517;-66
2024/01/09 06:08:15;;;;;;;;;;;;;;;;;;4977209;28;89684;-67
2024/01/09 06:10:40;;;;;;;;;;;;;;;;;;4979304;28;90567;-66
2024/01/09 06:13:06;;;;;;;;;;;;;;;;;;4974768;28;89366;-67
2024/01/09 06:15:31;;;;;;;;;;;;;;;;;;4983715;28;89528;-67
2024/01/09 06:17:56;;;;;;;;;;;;;;;;;;4977959;28;91958;-67
2024/01/09 06:20:22;;;;;;;;;;;;;;;;;;4980699;28;90362;-66
2024/01/09 06:22:47;;;;;;;;;;;;;;;;;;4980101;28;90163;-66
2024/01/09 06:25:13;;;;;;;;;;;;;;;;;;4978917;28;89951;-67
2024/01/09 06:27:38;;;;;;;;;;;;;;;;;;4975594;28;89643;-66
2024/01/09 06:30:04;;;;;;;;;;;;;;;;;;4977590;28;89418;-66
2024/01/09 06:32:29;;;;;;;;;;;;;;;;;;4976256;28;89099;-67
2024/01/09 06:34:55;;;;;;;;;;;;;;;;;;4977857;28;90111;-68
2024/01/09 06:37:20;;;;;;;;;;;;;;;;;;4975137;28;90288;-67
2024/01/09 06:39:45;;;;;;;;;;;;;;;;;;4979883;28;89143;-66
2024/01/09 06:42:10;;;;;;;;;;;;;;;;;;4977048;28;89365;-66
2024/01/09 06:44:36;;;;;;;;;;;;;;;;;;4976626;28;90630;-66
2024/01/09 06:47:01;;;;;;;;;;;;;;;;;;4970361;28;91157;-66
2024/01/09 06:49:26;;;;;;;;;;;;;;;;;;4979493;28;91085;-66
2024/01/09 06:51:53;;;;;;;;;;;;;;;;;;4976955;28;90064;-66
2024/01/09 06:54:18;;;;;;;;;;;;;;;;;;4973009;28;90429;-66
2024/01/09 06:56:44;;;;;;;;;;;;;;;;;;4973520;28;89241;-66
2024/01/09 06:59:10;;;;;;;;;;;;;;;;;;4972959;28;91163;-64
2024/01/09 07:01:35;;;;;;;;;;;;;;;;;;4976668;28;92399;-71
2024/01/09 07:04:01;;;;;;;;;;;;;;;;;;4984756;28;90756;-64
2024/01/09 07:06:26;;;;;;;;;;;;;;;;;;4977918;28;89968;-67
2024/01/09 07:08:51;;;;;;;;;;;;;;;;;;4978583;28;89804;-66
2024/01/09 07:11:16;;;;;;;;;;;;;;;;;;4972013;28;90154;-66
2024/01/09 07:13:42;;;;;;;;;;;;;;;;;;4970861;28;89540;-67
2024/01/09 07:16:07;;;;;;;;;;;;;;;;;;4976334;28;89487;-66
2024/01/09 07:18:32;;;;;;;;;;;;;;;;;;4977181;28;89450;-68
2024/01/09 07:20:58;;;;;;;;;;;;;;;;;;4973440;28;91719;-70
2024/01/09 07:23:23;;;;;;;;;;;;;;;;;;4977668;28;89940;-67
2024/01/09 07:25:48;;;;;;;;;;;;;;;;;;4977156;28;89744;-66
2024/01/09 07:28:13;;;;;;;;;;;;;;;;;;4973550;28;90409;-66
2024/01/09 07:30:39;;;;;;;;;;;;;;;;;;4978829;28;89089;-69
2024/01/09 07:33:04;;;;;;;;;;;;;;;;;;4967311;28;90428;-66
2024/01/09 07:35:34;;;;;;;;;;;;;;;;;;4971977;28;89557;-70
2024/01/09 07:37:59;;;;;;;;;;;;;;;;;;4973511;28;89565;-68
2024/01/09 07:40:24;;;;;;;;;;;;;;;;;;4975765;28;90041;-70
2024/01/09 07:42:50;;;;;;;;;;;;;;;;;;4972131;28;89812;-68
2024/01/09 07:45:15;;;;;;;;;;;;;;;;;;4973323;28;89640;-67
2024/01/09 07:47:40;;;;;;;;;;;;;;;;;;4967294;28;89602;-65
2024/01/09 07:50:06;;;;;;;;;;;;;;;;;;4973836;28;89711;-67
2024/01/09 07:52:31;;;;;;;;;;;;;;;;;;4972833;28;92022;-65
2024/01/09 07:54:57;;;;;;;;;;;;;;;;;;4975822;28;89615;-65
2024/01/09 07:57:24;;;;;;;;;;;;;;;;;;4973285;28;89778;-65
2024/01/09 07:59:49;;;;;;;;;;;;;;;;;;4970956;28;90985;-66
2024/01/09 08:02:14;;;;;;;;;;;;;;;;;;4969702;28;89164;-64
2024/01/09 08:04:40;;;;;;;;;;;;;;;;;;4974563;28;90556;-65
2024/01/09 08:07:05;;;;;;;;;;;;;;;;;;4967761;28;89769;-67
2024/01/09 08:09:30;;;;;;;;;;;;;;;;;;4950266;28;89422;-67
2024/01/09 08:11:55;;;;;;;;;;;;;;;;;;4951049;28;89570;-65
2024/01/09 08:14:20;;;;;;;;;;;;;;;;;;4946778;28;89845;-65
2024/01/09 08:16:46;;;;;;;;;;;;;;;;;;4955799;28;90798;-66
2024/01/09 08:19:14;;;;;;;;;;;;;;;;;;4953508;28;89941;-67
2024/01/09 08:21:40;;;;;;;;;;;;;;;;;;4951749;28;89198;-66
2024/01/09 08:24:05;;;;;;;;;;;;;;;;;;4944692;28;89568;-66
2024/01/09 08:26:30;;;;;;;;;;;;;;;;;;4952973;28;89720;-70
2024/01/09 08:28:56;;;;;;;;;;;;;;;;;;4956934;28;90729;-66
2024/01/09 10:31:33;;;;;;;;;;;;;;;;;;6139271;23;82439;-68
2024/01/09 10:33:59;;;;;;;;;;;;;;;;;;6103593;23;89781;-69
2024/01/09 10:36:24;;;;;;;;;;;;;;;;;;6129244;23;89503;-68
2024/01/09 10:38:49;;;;;;;;;;;;;;;;;;6130358;23;89068;-67
2024/01/09 10:41:18;;;;;;;;;;;;;;;;;;6129784;23;90123;-69
2024/01/09 10:43:43;;;;;;;;;;;;;;;;;;6129530;23;89953;-67
2024/01/09 10:46:09;;;;;;;;;;;;;;;;;;6130095;23;89532;-69
2024/01/09 10:48:35;;;;;;;;;;;;;;;;;;6129832;23;90133;-71
2024/01/09 10:51:00;;;;;;;;;;;;;;;;;;6131911;23;89419;-70
2024/01/09 10:53:27;;;;;;;;;;;;;;;;;;6129710;23;89235;-67
2024/01/09 10:55:54;;;;;;;;;;;;;;;;;;6129824;23;89158;-69
2024/01/09 10:58:19;;;;;;;;;;;;;;;;;;6130091;23;89421;-69
2024/01/09 11:00:45;;;;;;;;;;;;;;;;;;6129663;23;90174;-70
2024/01/09 11:03:11;;;;;;;;;;;;;;;;;;6129785;23;89378;-69
2024/01/09 11:05:37;;;;;;;;;;;;;;;;;;6129496;23;89526;-71
2024/01/09 11:08:05;;;;;;;;;;;;;;;;;;6129387;23;89574;-69
2024/01/09 11:10:31;;;;;;;;;;;;;;;;;;6129270;23;89412;-70
2024/01/09 11:12:58;;;;;;;;;;;;;;;;;;6133910;23;89540;-70
2024/01/09 11:15:26;;;;;;;;;;;;;;;;;;6130505;23;89981;-70
2024/01/09 11:17:57;;;;;;;;;;;;;;;;;;6130831;23;89613;-69
2024/01/09 11:20:23;;;;;;;;;;;;;;;;;;6132530;23;89759;-67
2024/01/09 11:22:48;;;;;;;;;;;;;;;;;;6129771;23;89736;-69
2024/01/09 11:25:17;;;;;;;;;;;;;;;;;;6129874;23;89562;-66
2024/01/09 11:27:43;;;;;;;;;;;;;;;;;;6129134;23;89389;-68
2024/01/09 11:30:14;;;;;;;;;;;;;;;;;;6128400;23;92341;-65
2024/01/09 11:32:39;;;;;;;;;;;;;;;;;;6122522;23;89388;-71
2024/01/09 11:35:08;;;;;;;;;;;;;;;;;;6098795;23;91401;-68
2024/01/09 11:37:35;;;;;;;;;;;;;;;;;;6122244;23;89692;-71
2024/01/09 11:40:00;;;;;;;;;;;;;;;;;;6122401;23;89864;-70
2024/01/09 11:42:26;;;;;;;;;;;;;;;;;;6122614;23;89295;-70
2024/01/09 11:44:52;;;;;;;;;;;;;;;;;;6122893;23;89372;-71
2024/01/09 11:47:17;;;;;;;;;;;;;;;;;;6096152;23;90822;-70
2024/01/09 11:49:42;;;;;;;;;;;;;;;;;;6122376;23;89421;-71
2024/01/09 11:52:08;;;;;;;;;;;;;;;;;;6122177;23;89432;-70
2024/01/09 11:54:33;;;;;;;;;;;;;;;;;;6122546;23;89604;-66
2024/01/09 11:56:59;;;;;;;;;;;;;;;;;;6099322;23;91875;-70
2024/01/09 11:59:24;;;;;;;;;;;;;;;;;;6123448;23;90428;-70
2024/01/09 12:01:49;;;;;;;;;;;;;;;;;;6122580;23;89930;-68
2024/01/09 12:04:14;;;;;;;;;;;;;;;;;;6122869;23;89699;-71
2024/01/09 12:06:40;;;;;;;;;;;;;;;;;;6123450;23;89644;-70
2024/01/09 12:09:05;;;;;;;;;;;;;;;;;;6123100;23;89887;-67
2024/01/09 12:11:30;;;;;;;;;;;;;;;;;;6123119;23;89144;-70
2024/01/09 12:13:59;;;;;;;;;;;;;;;;;;6123469;23;89648;-68
2024/01/09 12:16:25;;;;;;;;;;;;;;;;;;6096814;23;90863;-71
2024/01/09 12:18:52;;;;;;;;;;;;;;;;;;6126497;23;90235;-64
2024/01/09 12:21:18;;;;;;;;;;;;;;;;;;6122023;23;90101;-69
2024/01/09 12:23:43;;;;;;;;;;;;;;;;;;6120722;23;89308;-70
2024/01/09 12:26:09;;;;;;;;;;;;;;;;;;6123004;23;89811;-68
2024/01/09 12:28:35;;;;;;;;;;;;;;;;;;6122307;23;89455;-67
2024/01/09 12:31:03;;;;;;;;;;;;;;;;;;6122066;23;89447;-65
2024/01/09 12:33:29;;;;;;;;;;;;;;;;;;6122227;23;89664;-64
2024/01/09 12:35:55;;;;;;;;;;;;;;;;;;6096132;23;92167;-65
2024/01/09 12:38:22;;;;;;;;;;;;;;;;;;6122874;23;88984;-70
2024/01/09 12:40:56;;;;;;;;;;;;;;;;;;6125431;23;89492;-68
2024/01/09 12:43:21;;;;;;;;;;;;;;;;;;6122871;23;89261;-66
2024/01/09 12:45:46;;;;;;;;;;;;;;;;;;6122970;23;89706;-70
2024/01/09 12:48:12;;;;;;;;;;;;;;;;;;6122604;23;89797;-71
2024/01/09 12:50:37;;;;;;;;;;;;;;;;;;6123131;23;89733;-66
2024/01/09 12:53:03;;;;;;;;;;;;;;;;;;6122892;23;89601;-68
2024/01/09 12:55:29;;;;;;;;;;;;;;;;;;6122231;23;89667;-69
2024/01/09 12:57:55;;;;;;;;;;;;;;;;;;6123199;23;89376;-70
2024/01/09 13:00:21;;;;;;;;;;;;;;;;;;6126039;23;89972;-70
2024/01/09 13:02:46;;;;;;;;;;;;;;;;;;6123594;23;89437;-68
2024/01/09 13:05:12;;;;;;;;;;;;;;;;;;6097378;23;93119;-70
2024/01/09 13:07:37;;;;;;;;;;;;;;;;;;6122954;23;89525;-67
2024/01/09 13:10:02;;;;;;;;;;;;;;;;;;6123129;23;89626;-68
2024/01/09 13:12:28;;;;;;;;;;;;;;;;;;6123085;23;88951;-65
2024/01/09 13:14:53;;;;;;;;;;;;;;;;;;6096438;23;91057;-66
2024/01/09 13:17:20;;;;;;;;;;;;;;;;;;6122675;23;89536;-66
2024/01/09 13:19:45;;;;;;;;;;;;;;;;;;6122606;23;90154;-66
2024/01/09 13:22:11;;;;;;;;;;;;;;;;;;6125867;23;89126;-67
2024/01/09 13:24:36;;;;;;;;;;;;;;;;;;6122925;23;90248;-71
2024/01/09 13:27:03;;;;;;;;;;;;;;;;;;6122238;23;89463;-71
2024/01/09 13:29:28;;;;;;;;;;;;;;;;;;6122513;23;89740;-69
2024/01/09 13:31:54;;;;;;;;;;;;;;;;;;6122757;23;90824;-65
2024/01/09 13:34:19;;;;;;;;;;;;;;;;;;6121944;23;90474;-69
2024/01/09 13:36:44;;;;;;;;;;;;;;;;;;6121279;23;89228;-71
2024/01/09 13:39:14;;;;;;;;;;;;;;;;;;6122376;23;89674;-71
2024/01/09 13:41:39;;;;;;;;;;;;;;;;;;6094738;23;92131;-72
2024/01/09 13:44:05;;;;;;;;;;;;;;;;;;6123099;23;89322;-73
2024/01/09 13:46:30;;;;;;;;;;;;;;;;;;6121601;23;90257;-73
2024/01/09 13:48:55;;;;;;;;;;;;;;;;;;6123981;23;89026;-73
2024/01/09 13:51:24;;;;;;;;;;;;;;;;;;6120589;23;89587;-73
2024/01/09 13:53:51;;;;;;;;;;;;;;;;;;6122707;23;89745;-73
2024/01/09 13:56:17;;;;;;;;;;;;;;;;;;6123667;23;89054;-73
2024/01/09 13:58:42;;;;;;;;;;;;;;;;;;6123525;23;89978;-73
2024/01/09 14:01:07;;;;;;;;;;;;;;;;;;6123115;23;89623;-73
2024/01/09 14:03:33;;;;;;;;;;;;;;;;;;6096786;23;89642;-73
2024/01/09 14:05:58;;;;;;;;;;;;;;;;;;6100789;23;92206;-73
2024/01/09 14:08:23;;;;;;;;;;;;;;;;;;6123859;23;89498;-73
2024/01/09 14:10:48;;;;;;;;;;;;;;;;;;6096175;23;92263;-72
2024/01/09 14:13:14;;;;;;;;;;;;;;;;;;6123315;23;89727;-72
2024/01/09 14:15:39;;;;;;;;;;;;;;;;;;6123288;23;88981;-73
2024/01/09 14:18:04;;;;;;;;;;;;;;;;;;6123118;23;89688;-74
2024/01/09 14:20:30;;;;;;;;;;;;;;;;;;6123446;23;89587;-73
2024/01/09 14:22:55;;;;;;;;;;;;;;;;;;6122471;23;89146;-74
2024/01/09 14:25:20;;;;;;;;;;;;;;;;;;6123842;23;89519;-73
2024/01/09 14:27:46;;;;;;;;;;;;;;;;;;6127553;23;89816;-74
2024/01/09 14:30:12;;;;;;;;;;;;;;;;;;6096947;23;91399;-74
2024/01/09 14:32:38;;;;;;;;;;;;;;;;;;6123584;23;90713;-74
2024/01/09 14:35:05;;;;;;;;;;;;;;;;;;6123890;23;89617;-73
2024/01/09 14:37:31;;;;;;;;;;;;;;;;;;6124753;23;89063;-73
2024/01/09 14:39:56;;;;;;;;;;;;;;;;;;6097797;23;90516;-73
2024/01/09 14:42:23;;;;;;;;;;;;;;;;;;6097245;23;89265;-72
2024/01/09 14:44:54;;;;;;;;;;;;;;;;;;6123965;23;89643;-71
2024/01/09 14:47:19;;;;;;;;;;;;;;;;;;6129228;23;90207;-72
2024/01/09 14:49:45;;;;;;;;;;;;;;;;;;4981081;23;10000627;-73
2024/01/09 14:52:10;;;;;;;;;;;;;;;;;;6034180;23;89131;-72
2024/01/09 14:54:37;;;;;;;;;;;;;;;;;;6034131;23;89149;-73
2024/01/09 14:57:02;;;;;;;;;;;;;;;;;;6034032;23;89394;-71
2024/01/09 14:59:28;;;;;;;;;;;;;;;;;;6033307;23;89538;-71
2024/01/09 15:01:53;;;;;;;;;;;;;;;;;;6032747;23;89185;-72
2024/01/09 15:04:19;;;;;;;;;;;;;;;;;;6034712;23;89977;-73
2024/01/09 15:06:44;;;;;;;;;;;;;;;;;;6035341;23;90056;-72
2024/01/09 15:09:10;;;;;;;;;;;;;;;;;;6038908;23;89476;-73
2024/01/09 15:12:00;;;;;;;;;;;;;;;;;;6035577;23;89719;-73
2024/01/09 15:14:26;;;;;;;;;;;;;;;;;;6035535;23;89290;-73
2024/01/09 15:16:51;;;;;;;;;;;;;;;;;;6035959;23;89464;-72
2024/01/09 15:19:16;;;;;;;;;;;;;;;;;;6035327;23;89690;-73
2024/01/09 15:21:41;;;;;;;;;;;;;;;;;;6033131;23;91648;-72
2024/01/09 15:24:07;;;;;;;;;;;;;;;;;;6035737;23;89375;-72
2024/01/09 15:26:33;;;;;;;;;;;;;;;;;;6035868;23;89658;-73
2024/01/09 15:28:58;;;;;;;;;;;;;;;;;;6035317;23;89435;-73
2024/01/09 15:31:23;;;;;;;;;;;;;;;;;;6037741;23;89378;-72
2024/01/09 15:33:48;;;;;;;;;;;;;;;;;;6033552;23;89586;-72
2024/01/09 15:36:14;;;;;;;;;;;;;;;;;;6034461;23;89767;-71
2024/01/09 15:38:39;;;;;;;;;;;;;;;;;;6034322;23;90477;-72
2024/01/09 15:41:08;;;;;;;;;;;;;;;;;;6034052;23;89694;-72
2024/01/09 15:43:34;;;;;;;;;;;;;;;;;;6033667;23;89854;-72
2024/01/09 15:45:59;;;;;;;;;;;;;;;;;;6032942;23;92585;-71
2024/01/09 15:48:24;;;;;;;;;;;;;;;;;;6034070;23;90251;-71
2024/01/09 15:50:49;;;;;;;;;;;;;;;;;;6034473;23;90029;-71
2024/01/09 15:53:17;;;;;;;;;;;;;;;;;;6037880;23;89794;-72
2024/01/09 15:55:42;;;;;;;;;;;;;;;;;;6032326;23;89269;-72
2024/01/09 15:58:09;;;;;;;;;;;;;;;;;;6032090;23;90873;-73
2024/01/09 16:00:34;;;;;;;;;;;;;;;;;;6033853;23;90196;-73
2024/01/09 16:02:59;;;;;;;;;;;;;;;;;;6034456;23;90793;-73
2024/01/09 16:05:25;;;;;;;;;;;;;;;;;;6032707;23;90558;-72
2024/01/09 16:07:52;;;;;;;;;;;;;;;;;;6033304;23;89330;-73
2024/01/09 16:10:18;;;;;;;;;;;;;;;;;;6033942;23;89581;-73
2024/01/09 16:12:43;;;;;;;;;;;;;;;;;;6034158;23;89523;-72
2024/01/09 16:15:09;;;;;;;;;;;;;;;;;;6036558;23;89874;-72
2024/01/09 16:17:35;;;;;;;;;;;;;;;;;;6033365;23;89331;-73
2024/01/09 16:20:00;;;;;;;;;;;;;;;;;;6033871;23;89666;-73
2024/01/09 16:22:25;;;;;;;;;;;;;;;;;;6031258;23;89603;-72
2024/01/09 16:24:50;;;;;;;;;;;;;;;;;;6033351;23;90143;-73
2024/01/09 16:27:16;;;;;;;;;;;;;;;;;;6031258;23;91726;-72
2024/01/09 16:29:41;;;;;;;;;;;;;;;;;;6033055;23;89548;-71
2024/01/09 16:32:06;;;;;;;;;;;;;;;;;;6034767;23;89023;-71
2024/01/09 16:34:31;;;;;;;;;;;;;;;;;;6026642;23;92559;-72
2024/01/09 16:36:57;;;;;;;;;;;;;;;;;;6038962;23;88990;-72
2024/01/09 16:39:23;;;;;;;;;;;;;;;;;;6033513;23;89162;-73
2024/01/09 16:41:49;;;;;;;;;;;;;;;;;;6033624;23;89570;-71
2024/01/09 16:44:14;;;;;;;;;;;;;;;;;;6056985;23;89993;-72
2024/01/09 16:46:43;;;;;;;;;;;;;;;;;;6031386;23;91295;-73
2024/01/09 16:49:08;;;;;;;;;;;;;;;;;;6034244;23;89127;-72
2024/01/09 16:51:33;;;;;;;;;;;;;;;;;;6033980;23;89950;-72
2024/01/09 16:54:01;;;;;;;;;;;;;;;;;;6034345;23;89485;-71
2024/01/09 16:56:27;;;;;;;;;;;;;;;;;;6008161;23;91338;-71
2024/01/09 16:58:52;;;;;;;;;;;;;;;;;;6034404;23;89797;-73
2024/01/09 17:01:27;;;;;;;;;;;;;;;;;;6033500;23;89195;-73
2024/01/09 17:03:53;;;;;;;;;;;;;;;;;;6033969;23;90675;-73
2024/01/09 17:06:19;;;;;;;;;;;;;;;;;;6033371;23;89280;-73
2024/01/09 17:08:45;;;;;;;;;;;;;;;;;;6033173;23;90350;-73
2024/01/09 17:11:13;;;;;;;;;;;;;;;;;;6030961;23;92310;-72
2024/01/09 17:13:38;;;;;;;;;;;;;;;;;;6030704;23;91343;-73
2024/01/09 17:16:04;;;;;;;;;;;;;;;;;;6031486;23;89273;-73
2024/01/09 17:18:29;;;;;;;;;;;;;;;;;;6036591;23;90233;-72
2024/01/09 17:20:54;;;;;;;;;;;;;;;;;;6034089;23;89594;-73
2024/01/09 17:23:20;;;;;;;;;;;;;;;;;;6033944;23;89660;-73
2024/01/09 17:25:45;;;;;;;;;;;;;;;;;;6031883;23;90723;-72
2024/01/09 17:28:10;;;;;;;;;;;;;;;;;;6034321;23;89072;-73
2024/01/09 17:30:36;;;;;;;;;;;;;;;;;;6030529;23;92096;-72
2024/01/09 17:33:01;;;;;;;;;;;;;;;;;;6031813;23;89219;-73
2024/01/09 17:35:26;;;;;;;;;;;;;;;;;;6033085;23;89228;-71
2024/01/09 17:37:52;;;;;;;;;;;;;;;;;;6032505;23;89592;-73
2024/01/09 17:40:17;;;;;;;;;;;;;;;;;;6036565;23;89457;-69
2024/01/09 17:42:43;;;;;;;;;;;;;;;;;;6033700;23;89556;-69
2024/01/09 17:45:08;;;;;;;;;;;;;;;;;;6033210;23;89397;-71
2024/01/09 17:47:34;;;;;;;;;;;;;;;;;;6033724;23;89276;-71
2024/01/09 17:49:59;;;;;;;;;;;;;;;;;;6033801;23;90618;-73
2024/01/09 17:52:26;;;;;;;;;;;;;;;;;;6032079;23;92300;-70
2024/01/09 17:54:51;;;;;;;;;;;;;;;;;;6033455;23;89397;-68
2024/01/09 17:57:16;;;;;;;;;;;;;;;;;;6033282;23;89688;-70
2024/01/09 17:59:43;;;;;;;;;;;;;;;;;;6032716;23;89576;-69
2024/01/09 18:02:08;;;;;;;;;;;;;;;;;;6034251;23;89045;-66
2024/01/09 18:04:37;;;;;;;;;;;;;;;;;;6030478;23;90778;-68
2024/01/09 18:07:03;;;;;;;;;;;;;;;;;;6033867;23;89341;-74
2024/01/09 18:09:29;;;;;;;;;;;;;;;;;;6033740;23;89787;-72
2024/01/09 18:11:55;;;;;;;;;;;;;;;;;;6033796;23;90832;-72
2024/01/09 18:14:20;;;;;;;;;;;;;;;;;;6033933;23;89503;-71
2024/01/09 18:16:46;;;;;;;;;;;;;;;;;;6031847;23;91785;-70
2024/01/09 18:19:11;;;;;;;;;;;;;;;;;;6033695;23;89338;-72
2024/01/09 18:21:41;;;;;;;;;;;;;;;;;;6033045;23;89361;-70
2024/01/09 18:24:06;;;;;;;;;;;;;;;;;;6036882;23;90025;-76
2024/01/09 18:26:31;;;;;;;;;;;;;;;;;;6034628;23;89570;-72
2024/01/09 18:28:59;;;;;;;;;;;;;;;;;;6034620;23;89834;-74
2024/01/09 18:31:24;;;;;;;;;;;;;;;;;;6032172;23;90096;-70
2024/01/09 18:33:51;;;;;;;;;;;;;;;;;;6033344;23;90217;-75
2024/01/09 18:36:16;;;;;;;;;;;;;;;;;;6032468;23;89566;-71